sensor_id;sensor_type;location;lat;lon;timestamp;temperature;humidity
26304;DHT22;57113;48.680;8.890;2023-05-08T00:01:59;15.70;99.90
26304;DHT22;57113;48.680;8.890;2023-05-08T00:04:25;15.70;99.90
26304;DHT22;57113;48.680;8.890;2023-05-08T00:06:51;15.70;99.90
26304;DHT22;57113;48.680;8.890;2023-05-08T00:09:18;15.70;99.90
26304;DHT22;57113;48.680;8.890;2023-05-08T00:11:43;15.70;99.90
26304;DHT22;57113;48.680;8.890;2023-05-08T00:14:09;15.70;99.90
26304;DHT22;57113;48.680;8.890;2023-05-08T00:16:35;15.70;99.90
26304;DHT22;57113;48.680;8.890;2023-05-08T00:19:01;15.70;99.90
26304;DHT22;57113;48.680;8.890;2023-05-08T00:21:27;15.60;99.90
26304;DHT22;57113;48.680;8.890;2023-05-08T00:23:53;15.70;99.90
26304;DHT22;57113;48.680;8.890;2023-05-08T00:26:18;15.70;99.90
26304;DHT22;57113;48.680;8.890;2023-05-08T00:28:45;15.70;99.90
26304;DHT22;57113;48.680;8.890;2023-05-08T00:31:11;15.70;99.90
26304;DHT22;57113;48.680;8.890;2023-05-08T00:33:36;15.70;99.90
26304;DHT22;57113;48.680;8.890;2023-05-08T00:36:03;15.70;99.90
26304;DHT22;57113;48.680;8.890;2023-05-08T00:38:33;15.70;99.90
26304;DHT22;57113;48.680;8.890;2023-05-08T00:41:00;15.70;99.90
26304;DHT22;57113;48.680;8.890;2023-05-08T00:43:26;15.70;99.90
26304;DHT22;57113;48.680;8.890;2023-05-08T00:45:56;15.70;99.90
26304;DHT22;57113;48.680;8.890;2023-05-08T00:48:23;15.70;99.90
26304;DHT22;57113;48.680;8.890;2023-05-08T00:50:51;15.70;99.90
26304;DHT22;57113;48.680;8.890;2023-05-08T00:53:19;15.70;99.90
26304;DHT22;57113;48.680;8.890;2023-05-08T00:55:47;15.70;99.90
26304;DHT22;57113;48.680;8.890;2023-05-08T00:58:13;15.70;99.90
26304;DHT22;57113;48.680;8.890;2023-05-08T01:00:41;15.70;99.90
26304;DHT22;57113;48.680;8.890;2023-05-08T01:03:08;15.70;99.90
26304;DHT22;57113;48.680;8.890;2023-05-08T01:05:35;15.70;99.90
26304;DHT22;57113;48.680;8.890;2023-05-08T01:08:01;15.60;99.90
26304;DHT22;57113;48.680;8.890;2023-05-08T01:10:34;15.70;99.90
26304;DHT22;57113;48.680;8.890;2023-05-08T01:13:23;15.60;99.90
26304;DHT22;57113;48.680;8.890;2023-05-08T01:16:20;15.60;99.90
26304;DHT22;57113;48.680;8.890;2023-05-08T01:18:46;15.60;99.90
26304;DHT22;57113;48.680;8.890;2023-05-08T01:30:01;15.60;99.90
26304;DHT22;57113;48.680;8.890;2023-05-08T01:32:38;15.60;99.90
26304;DHT22;57113;48.680;8.890;2023-05-08T01:35:20;15.60;99.90
26304;DHT22;57113;48.680;8.890;2023-05-08T01:37:53;15.60;99.90
26304;DHT22;57113;48.680;8.890;2023-05-08T01:40:32;15.60;99.90
26304;DHT22;57113;48.680;8.890;2023-05-08T01:43:18;15.60;99.90
26304;DHT22;57113;48.680;8.890;2023-05-08T01:45:49;15.60;99.90
26304;DHT22;57113;48.680;8.890;2023-05-08T01:48:31;15.60;99.90
26304;DHT22;57113;48.680;8.890;2023-05-08T01:51:06;15.60;99.90
26304;DHT22;57113;48.680;8.890;2023-05-08T01:53:38;15.60;99.90
26304;DHT22;57113;48.680;8.890;2023-05-08T01:56:09;15.60;99.90
26304;DHT22;57113;48.680;8.890;2023-05-08T01:58:36;15.50;99.90
26304;DHT22;57113;48.680;8.890;2023-05-08T02:01:02;15.50;99.90
26304;DHT22;57113;48.680;8.890;2023-05-08T02:03:30;15.60;99.90
26304;DHT22;57113;48.680;8.890;2023-05-08T02:05:58;15.60;99.90
26304;DHT22;57113;48.680;8.890;2023-05-08T02:08:25;15.50;99.90
26304;DHT22;57113;48.680;8.890;2023-05-08T02:10:52;15.60;99.90
26304;DHT22;57113;48.680;8.890;2023-05-08T02:13:20;15.60;99.90
26304;DHT22;57113;48.680;8.890;2023-05-08T02:15:47;15.50;99.90
26304;DHT22;57113;48.680;8.890;2023-05-08T02:18:14;15.50;99.90
26304;DHT22;57113;48.680;8.890;2023-05-08T02:20:41;15.50;99.90
26304;DHT22;57113;48.680;8.890;2023-05-08T02:23:07;15.50;99.90
26304;DHT22;57113;48.680;8.890;2023-05-08T02:25:34;15.60;99.90
26304;DHT22;57113;48.680;8.890;2023-05-08T02:28:01;15.60;99.90
26304;DHT22;57113;48.680;8.890;2023-05-08T02:30:28;15.60;99.90
26304;DHT22;57113;48.680;8.890;2023-05-08T02:32:55;15.60;99.90
26304;DHT22;57113;48.680;8.890;2023-05-08T02:35:22;15.50;99.90
26304;DHT22;57113;48.680;8.890;2023-05-08T02:37:51;15.50;99.90
26304;DHT22;57113;48.680;8.890;2023-05-08T02:40:19;15.50;99.90
26304;DHT22;57113;48.680;8.890;2023-05-08T02:42:46;15.50;99.90
26304;DHT22;57113;48.680;8.890;2023-05-08T02:45:12;15.50;99.90
26304;DHT22;57113;48.680;8.890;2023-05-08T02:50:31;15.60;99.90
26304;DHT22;57113;48.680;8.890;2023-05-08T02:53:03;15.60;99.90
26304;DHT22;57113;48.680;8.890;2023-05-08T02:55:52;15.50;99.90
26304;DHT22;57113;48.680;8.890;2023-05-08T02:58:48;15.50;99.90
26304;DHT22;57113;48.680;8.890;2023-05-08T03:01:34;15.50;99.90
26304;DHT22;57113;48.680;8.890;2023-05-08T03:04:06;15.60;99.90
26304;DHT22;57113;48.680;8.890;2023-05-08T03:06:39;15.50;99.90
26304;DHT22;57113;48.680;8.890;2023-05-08T03:09:06;15.50;99.90
26304;DHT22;57113;48.680;8.890;2023-05-08T03:11:41;15.40;99.90
26304;DHT22;57113;48.680;8.890;2023-05-08T03:14:10;15.40;99.90
26304;DHT22;57113;48.680;8.890;2023-05-08T03:16:38;15.50;99.90
26304;DHT22;57113;48.680;8.890;2023-05-08T03:19:08;15.50;99.90
26304;DHT22;57113;48.680;8.890;2023-05-08T03:21:35;15.40;99.90
26304;DHT22;57113;48.680;8.890;2023-05-08T03:24:02;15.40;99.90
26304;DHT22;57113;48.680;8.890;2023-05-08T03:26:29;15.40;99.90
26304;DHT22;57113;48.680;8.890;2023-05-08T03:28:56;15.40;99.90
26304;DHT22;57113;48.680;8.890;2023-05-08T03:31:23;15.40;99.90
26304;DHT22;57113;48.680;8.890;2023-05-08T03:33:52;15.40;99.90
26304;DHT22;57113;48.680;8.890;2023-05-08T03:36:18;15.40;99.90
26304;DHT22;57113;48.680;8.890;2023-05-08T03:38:44;15.40;99.90
26304;DHT22;57113;48.680;8.890;2023-05-08T03:41:10;15.40;99.90
26304;DHT22;57113;48.680;8.890;2023-05-08T03:43:37;15.40;99.90
26304;DHT22;57113;48.680;8.890;2023-05-08T03:46:06;15.40;99.90
26304;DHT22;57113;48.680;8.890;2023-05-08T03:48:33;15.40;99.90
26304;DHT22;57113;48.680;8.890;2023-05-08T03:51:03;15.50;99.90
26304;DHT22;57113;48.680;8.890;2023-05-08T03:53:29;15.50;99.90
26304;DHT22;57113;48.680;8.890;2023-05-08T03:55:59;15.50;99.90
26304;DHT22;57113;48.680;8.890;2023-05-08T03:58:49;15.50;99.90
26304;DHT22;57113;48.680;8.890;2023-05-08T04:01:24;15.40;99.90
26304;DHT22;57113;48.680;8.890;2023-05-08T04:09:50;15.40;99.90
26304;DHT22;57113;48.680;8.890;2023-05-08T04:12:21;15.50;99.90
26304;DHT22;57113;48.680;8.890;2023-05-08T04:15:06;15.40;99.90
26304;DHT22;57113;48.680;8.890;2023-05-08T04:20:06;15.40;99.90
26304;DHT22;57113;48.680;8.890;2023-05-08T04:22:34;15.40;99.90
26304;DHT22;57113;48.680;8.890;2023-05-08T04:25:03;15.40;99.90
26304;DHT22;57113;48.680;8.890;2023-05-08T04:27:30;15.40;99.90
26304;DHT22;57113;48.680;8.890;2023-05-08T04:29:56;15.40;99.90
26304;DHT22;57113;48.680;8.890;2023-05-08T04:32:22;15.40;99.90
26304;DHT22;57113;48.680;8.890;2023-05-08T04:34:49;15.40;99.90
26304;DHT22;57113;48.680;8.890;2023-05-08T04:37:25;15.40;99.90
26304;DHT22;57113;48.680;8.890;2023-05-08T04:39:51;15.40;99.90
26304;DHT22;57113;48.680;8.890;2023-05-08T04:42:17;15.40;99.90
26304;DHT22;57113;48.680;8.890;2023-05-08T04:44:42;15.40;99.90
26304;DHT22;57113;48.680;8.890;2023-05-08T04:47:08;15.40;99.90
26304;DHT22;57113;48.680;8.890;2023-05-08T04:49:34;15.40;99.90
26304;DHT22;57113;48.680;8.890;2023-05-08T04:51:59;15.40;99.90
26304;DHT22;57113;48.680;8.890;2023-05-08T04:54:26;15.40;99.90
26304;DHT22;57113;48.680;8.890;2023-05-08T04:56:51;15.50;99.90
26304;DHT22;57113;48.680;8.890;2023-05-08T04:59:17;15.40;99.90
26304;DHT22;57113;48.680;8.890;2023-05-08T05:01:45;15.40;99.90
26304;DHT22;57113;48.680;8.890;2023-05-08T05:04:11;15.40;99.90
26304;DHT22;57113;48.680;8.890;2023-05-08T05:06:37;15.40;99.90
26304;DHT22;57113;48.680;8.890;2023-05-08T05:09:02;15.40;99.90
26304;DHT22;57113;48.680;8.890;2023-05-08T05:11:29;15.40;99.90
26304;DHT22;57113;48.680;8.890;2023-05-08T05:13:55;15.40;99.90
26304;DHT22;57113;48.680;8.890;2023-05-08T05:16:20;15.40;99.90
26304;DHT22;57113;48.680;8.890;2023-05-08T05:18:46;15.40;99.90
26304;DHT22;57113;48.680;8.890;2023-05-08T05:21:11;15.40;99.90
26304;DHT22;57113;48.680;8.890;2023-05-08T05:23:37;15.40;99.90
26304;DHT22;57113;48.680;8.890;2023-05-08T05:26:03;15.40;99.90
26304;DHT22;57113;48.680;8.890;2023-05-08T05:28:29;15.40;99.90
26304;DHT22;57113;48.680;8.890;2023-05-08T05:30:55;15.40;99.90
26304;DHT22;57113;48.680;8.890;2023-05-08T05:33:20;15.40;99.90
26304;DHT22;57113;48.680;8.890;2023-05-08T05:35:46;15.40;99.90
26304;DHT22;57113;48.680;8.890;2023-05-08T05:38:12;15.40;99.90
26304;DHT22;57113;48.680;8.890;2023-05-08T05:40:37;15.40;99.90
26304;DHT22;57113;48.680;8.890;2023-05-08T05:43:03;15.40;99.90
26304;DHT22;57113;48.680;8.890;2023-05-08T05:45:29;15.40;99.90
26304;DHT22;57113;48.680;8.890;2023-05-08T05:47:54;15.40;99.90
26304;DHT22;57113;48.680;8.890;2023-05-08T05:50:20;15.30;99.90
26304;DHT22;57113;48.680;8.890;2023-05-08T05:52:46;15.40;99.90
26304;DHT22;57113;48.680;8.890;2023-05-08T05:55:12;15.40;99.90
26304;DHT22;57113;48.680;8.890;2023-05-08T05:57:38;15.40;99.90
26304;DHT22;57113;48.680;8.890;2023-05-08T06:00:05;15.40;99.90
26304;DHT22;57113;48.680;8.890;2023-05-08T06:02:31;15.40;99.90
26304;DHT22;57113;48.680;8.890;2023-05-08T06:04:58;15.40;99.90
26304;DHT22;57113;48.680;8.890;2023-05-08T06:07:24;15.40;99.90
26304;DHT22;57113;48.680;8.890;2023-05-08T06:09:50;15.40;99.90
26304;DHT22;57113;48.680;8.890;2023-05-08T06:12:17;15.40;99.90
26304;DHT22;57113;48.680;8.890;2023-05-08T06:14:43;15.40;99.90
26304;DHT22;57113;48.680;8.890;2023-05-08T06:17:09;15.40;99.90
26304;DHT22;57113;48.680;8.890;2023-05-08T06:19:35;15.40;99.90
26304;DHT22;57113;48.680;8.890;2023-05-08T06:22:01;15.40;99.90
26304;DHT22;57113;48.680;8.890;2023-05-08T06:24:27;15.40;99.90
26304;DHT22;57113;48.680;8.890;2023-05-08T06:26:52;15.40;99.90
26304;DHT22;57113;48.680;8.890;2023-05-08T06:29:18;15.40;99.90
26304;DHT22;57113;48.680;8.890;2023-05-08T06:31:44;15.40;99.90
26304;DHT22;57113;48.680;8.890;2023-05-08T06:34:09;15.40;99.90
26304;DHT22;57113;48.680;8.890;2023-05-08T06:36:35;15.40;99.90
26304;DHT22;57113;48.680;8.890;2023-05-08T06:39:03;15.40;99.90
26304;DHT22;57113;48.680;8.890;2023-05-08T06:41:29;15.40;99.90
26304;DHT22;57113;48.680;8.890;2023-05-08T06:43:55;15.40;99.90
26304;DHT22;57113;48.680;8.890;2023-05-08T06:46:21;15.40;99.90
26304;DHT22;57113;48.680;8.890;2023-05-08T06:48:46;15.40;99.90
26304;DHT22;57113;48.680;8.890;2023-05-08T06:51:12;15.40;99.90
26304;DHT22;57113;48.680;8.890;2023-05-08T06:53:37;15.50;99.90
26304;DHT22;57113;48.680;8.890;2023-05-08T06:56:03;15.50;99.90
26304;DHT22;57113;48.680;8.890;2023-05-08T06:58:30;15.50;99.90
26304;DHT22;57113;48.680;8.890;2023-05-08T07:00:58;15.50;99.90
26304;DHT22;57113;48.680;8.890;2023-05-08T07:03:24;15.50;99.90
26304;DHT22;57113;48.680;8.890;2023-05-08T07:05:50;15.50;99.90
26304;DHT22;57113;48.680;8.890;2023-05-08T07:08:16;15.60;99.90
26304;DHT22;57113;48.680;8.890;2023-05-08T07:10:41;15.60;99.90
26304;DHT22;57113;48.680;8.890;2023-05-08T07:13:07;15.60;99.90
26304;DHT22;57113;48.680;8.890;2023-05-08T07:15:32;15.60;99.90
26304;DHT22;57113;48.680;8.890;2023-05-08T07:17:58;15.50;99.90
26304;DHT22;57113;48.680;8.890;2023-05-08T07:20:24;15.60;99.90
26304;DHT22;57113;48.680;8.890;2023-05-08T07:22:50;15.60;99.90
26304;DHT22;57113;48.680;8.890;2023-05-08T07:25:15;15.60;99.90
26304;DHT22;57113;48.680;8.890;2023-05-08T07:27:41;15.60;99.90
26304;DHT22;57113;48.680;8.890;2023-05-08T07:30:07;15.60;99.90
26304;DHT22;57113;48.680;8.890;2023-05-08T07:32:33;15.60;99.90
26304;DHT22;57113;48.680;8.890;2023-05-08T07:34:59;15.60;99.90
26304;DHT22;57113;48.680;8.890;2023-05-08T07:37:24;15.60;99.90
26304;DHT22;57113;48.680;8.890;2023-05-08T07:39:50;15.60;99.90
26304;DHT22;57113;48.680;8.890;2023-05-08T07:42:16;15.60;99.90
26304;DHT22;57113;48.680;8.890;2023-05-08T07:44:43;15.60;99.90
26304;DHT22;57113;48.680;8.890;2023-05-08T07:47:08;15.60;99.90
26304;DHT22;57113;48.680;8.890;2023-05-08T07:49:34;15.60;99.90
26304;DHT22;57113;48.680;8.890;2023-05-08T07:51:59;15.60;99.90
26304;DHT22;57113;48.680;8.890;2023-05-08T07:54:25;15.70;99.90
26304;DHT22;57113;48.680;8.890;2023-05-08T07:56:51;15.60;99.90
26304;DHT22;57113;48.680;8.890;2023-05-08T07:59:16;15.60;99.90
26304;DHT22;57113;48.680;8.890;2023-05-08T08:01:42;15.60;99.90
26304;DHT22;57113;48.680;8.890;2023-05-08T08:04:12;15.60;99.90
26304;DHT22;57113;48.680;8.890;2023-05-08T08:06:38;15.60;99.90
26304;DHT22;57113;48.680;8.890;2023-05-08T08:09:04;15.60;99.90
26304;DHT22;57113;48.680;8.890;2023-05-08T08:11:30;15.70;99.90
26304;DHT22;57113;48.680;8.890;2023-05-08T08:13:56;15.60;99.90
26304;DHT22;57113;48.680;8.890;2023-05-08T08:16:21;15.70;99.90
26304;DHT22;57113;48.680;8.890;2023-05-08T08:18:47;15.60;99.90
26304;DHT22;57113;48.680;8.890;2023-05-08T08:21:13;15.60;99.90
26304;DHT22;57113;48.680;8.890;2023-05-08T08:23:38;15.60;99.90
26304;DHT22;57113;48.680;8.890;2023-05-08T08:26:04;15.60;99.90
26304;DHT22;57113;48.680;8.890;2023-05-08T08:28:30;15.60;99.90
26304;DHT22;57113;48.680;8.890;2023-05-08T08:30:55;15.60;99.90
26304;DHT22;57113;48.680;8.890;2023-05-08T08:33:21;15.60;99.90
26304;DHT22;57113;48.680;8.890;2023-05-08T08:35:46;15.60;99.90
26304;DHT22;57113;48.680;8.890;2023-05-08T08:38:12;15.60;99.90
26304;DHT22;57113;48.680;8.890;2023-05-08T08:40:41;15.60;99.90
26304;DHT22;57113;48.680;8.890;2023-05-08T08:43:08;15.60;99.90
26304;DHT22;57113;48.680;8.890;2023-05-08T08:45:35;15.60;99.90
26304;DHT22;57113;48.680;8.890;2023-05-08T08:48:02;15.60;99.90
26304;DHT22;57113;48.680;8.890;2023-05-08T08:50:30;15.60;99.90
26304;DHT22;57113;48.680;8.890;2023-05-08T08:53:25;15.60;99.90
26304;DHT22;57113;48.680;8.890;2023-05-08T08:55:52;15.60;99.90
26304;DHT22;57113;48.680;8.890;2023-05-08T08:58:41;15.60;99.90
26304;DHT22;57113;48.680;8.890;2023-05-08T09:01:15;15.60;99.90
26304;DHT22;57113;48.680;8.890;2023-05-08T09:03:42;15.60;99.90
26304;DHT22;57113;48.680;8.890;2023-05-08T09:06:07;15.60;99.90
26304;DHT22;57113;48.680;8.890;2023-05-08T09:08:34;15.60;99.90
26304;DHT22;57113;48.680;8.890;2023-05-08T09:11:01;15.60;99.90
26304;DHT22;57113;48.680;8.890;2023-05-08T09:13:28;15.60;99.90
26304;DHT22;57113;48.680;8.890;2023-05-08T09:15:54;15.60;99.90
26304;DHT22;57113;48.680;8.890;2023-05-08T09:18:20;15.70;99.90
26304;DHT22;57113;48.680;8.890;2023-05-08T09:20:45;15.70;99.90
26304;DHT22;57113;48.680;8.890;2023-05-08T09:23:13;15.70;99.90
26304;DHT22;57113;48.680;8.890;2023-05-08T09:25:47;15.70;99.90
26304;DHT22;57113;48.680;8.890;2023-05-08T09:28:24;15.70;99.90
26304;DHT22;57113;48.680;8.890;2023-05-08T09:30:52;15.70;99.90
26304;DHT22;57113;48.680;8.890;2023-05-08T09:33:18;15.70;99.90
26304;DHT22;57113;48.680;8.890;2023-05-08T09:35:44;15.70;99.90
26304;DHT22;57113;48.680;8.890;2023-05-08T09:38:38;15.70;99.90
26304;DHT22;57113;48.680;8.890;2023-05-08T09:41:09;15.70;99.90
26304;DHT22;57113;48.680;8.890;2023-05-08T09:43:35;15.70;99.90
26304;DHT22;57113;48.680;8.890;2023-05-08T09:46:24;15.70;99.90
26304;DHT22;57113;48.680;8.890;2023-05-08T09:48:52;15.70;99.90
26304;DHT22;57113;48.680;8.890;2023-05-08T09:51:18;15.70;99.90
26304;DHT22;57113;48.680;8.890;2023-05-08T09:53:44;15.70;99.90
26304;DHT22;57113;48.680;8.890;2023-05-08T09:56:10;15.70;99.90
26304;DHT22;57113;48.680;8.890;2023-05-08T09:58:43;15.70;99.90
26304;DHT22;57113;48.680;8.890;2023-05-08T10:01:33;15.70;99.90
26304;DHT22;57113;48.680;8.890;2023-05-08T10:03:59;15.70;99.90
26304;DHT22;57113;48.680;8.890;2023-05-08T10:06:26;15.70;99.90
26304;DHT22;57113;48.680;8.890;2023-05-08T10:09:09;15.70;99.90
26304;DHT22;57113;48.680;8.890;2023-05-08T10:11:40;15.70;99.90
26304;DHT22;57113;48.680;8.890;2023-05-08T10:14:06;15.70;99.90
26304;DHT22;57113;48.680;8.890;2023-05-08T10:16:43;15.70;99.90
26304;DHT22;57113;48.680;8.890;2023-05-08T10:19:15;15.70;99.90
26304;DHT22;57113;48.680;8.890;2023-05-08T10:21:50;15.70;99.90
26304;DHT22;57113;48.680;8.890;2023-05-08T10:24:16;15.70;99.90
26304;DHT22;57113;48.680;8.890;2023-05-08T10:26:47;15.70;99.90
26304;DHT22;57113;48.680;8.890;2023-05-08T10:29:19;15.70;99.90
26304;DHT22;57113;48.680;8.890;2023-05-08T10:31:46;15.70;99.90
26304;DHT22;57113;48.680;8.890;2023-05-08T10:34:18;15.70;99.90
26304;DHT22;57113;48.680;8.890;2023-05-08T10:36:46;15.70;99.90
26304;DHT22;57113;48.680;8.890;2023-05-08T10:39:13;15.70;99.90
26304;DHT22;57113;48.680;8.890;2023-05-08T10:41:41;15.70;99.90
26304;DHT22;57113;48.680;8.890;2023-05-08T10:44:08;15.70;99.90
26304;DHT22;57113;48.680;8.890;2023-05-08T10:46:53;15.70;99.90
26304;DHT22;57113;48.680;8.890;2023-05-08T10:52:19;15.70;99.90
26304;DHT22;57113;48.680;8.890;2023-05-08T10:57:26;15.70;99.90
26304;DHT22;57113;48.680;8.890;2023-05-08T10:59:52;15.70;99.90
26304;DHT22;57113;48.680;8.890;2023-05-08T11:02:28;15.70;99.90
26304;DHT22;57113;48.680;8.890;2023-05-08T11:05:00;15.70;99.90
26304;DHT22;57113;48.680;8.890;2023-05-08T11:07:57;15.70;99.90
26304;DHT22;57113;48.680;8.890;2023-05-08T11:10:30;15.70;99.90
26304;DHT22;57113;48.680;8.890;2023-05-08T11:12:56;15.70;99.90
26304;DHT22;57113;48.680;8.890;2023-05-08T11:15:39;15.70;99.90
26304;DHT22;57113;48.680;8.890;2023-05-08T11:18:09;15.70;99.90
26304;DHT22;57113;48.680;8.890;2023-05-08T11:23:23;15.70;99.90
26304;DHT22;57113;48.680;8.890;2023-05-08T11:31:18;15.70;99.90
26304;DHT22;57113;48.680;8.890;2023-05-08T11:33:44;15.70;99.90
26304;DHT22;57113;48.680;8.890;2023-05-08T11:36:16;15.70;99.90
26304;DHT22;57113;48.680;8.890;2023-05-08T11:39:07;15.70;99.90
26304;DHT22;57113;48.680;8.890;2023-05-08T11:41:34;15.70;99.90
26304;DHT22;57113;48.680;8.890;2023-05-08T11:46:48;15.70;99.90
26304;DHT22;57113;48.680;8.890;2023-05-08T11:49:20;15.70;99.90
26304;DHT22;57113;48.680;8.890;2023-05-08T11:51:49;15.80;99.90
26304;DHT22;57113;48.680;8.890;2023-05-08T11:54:19;15.80;99.90
26304;DHT22;57113;48.680;8.890;2023-05-08T11:56:52;15.80;99.90
26304;DHT22;57113;48.680;8.890;2023-05-08T11:59:19;15.80;99.90
26304;DHT22;57113;48.680;8.890;2023-05-08T12:01:47;15.80;99.90
26304;DHT22;57113;48.680;8.890;2023-05-08T12:04:13;15.80;99.90
26304;DHT22;57113;48.680;8.890;2023-05-08T12:06:40;15.80;99.90
26304;DHT22;57113;48.680;8.890;2023-05-08T12:09:14;15.70;99.90
26304;DHT22;57113;48.680;8.890;2023-05-08T12:11:40;15.80;99.90
26304;DHT22;57113;48.680;8.890;2023-05-08T12:14:08;15.80;99.90
26304;DHT22;57113;48.680;8.890;2023-05-08T12:16:38;15.80;99.90
26304;DHT22;57113;48.680;8.890;2023-05-08T12:19:11;15.80;99.90
26304;DHT22;57113;48.680;8.890;2023-05-08T12:21:37;15.80;99.90
26304;DHT22;57113;48.680;8.890;2023-05-08T12:24:09;15.80;99.90
26304;DHT22;57113;48.680;8.890;2023-05-08T12:26:35;15.80;99.90
26304;DHT22;57113;48.680;8.890;2023-05-08T12:29:07;15.80;99.90
26304;DHT22;57113;48.680;8.890;2023-05-08T12:31:36;15.80;99.90
26304;DHT22;57113;48.680;8.890;2023-05-08T12:34:04;15.80;99.90
26304;DHT22;57113;48.680;8.890;2023-05-08T12:36:34;15.80;99.90
26304;DHT22;57113;48.680;8.890;2023-05-08T12:39:33;15.80;99.90
26304;DHT22;57113;48.680;8.890;2023-05-08T12:41:58;15.80;99.90
26304;DHT22;57113;48.680;8.890;2023-05-08T12:44:25;15.80;99.90
26304;DHT22;57113;48.680;8.890;2023-05-08T12:46:56;15.80;99.90
26304;DHT22;57113;48.680;8.890;2023-05-08T12:49:27;15.80;99.90
26304;DHT22;57113;48.680;8.890;2023-05-08T12:52:07;15.80;99.90
26304;DHT22;57113;48.680;8.890;2023-05-08T12:54:37;15.80;99.90
26304;DHT22;57113;48.680;8.890;2023-05-08T12:57:13;15.80;99.90
26304;DHT22;57113;48.680;8.890;2023-05-08T12:59:40;15.80;99.90
26304;DHT22;57113;48.680;8.890;2023-05-08T13:02:20;15.80;99.90
26304;DHT22;57113;48.680;8.890;2023-05-08T13:04:53;15.90;99.90
26304;DHT22;57113;48.680;8.890;2023-05-08T13:07:22;15.90;99.90
26304;DHT22;57113;48.680;8.890;2023-05-08T13:10:00;15.90;99.90
26304;DHT22;57113;48.680;8.890;2023-05-08T13:12:29;15.90;99.90
26304;DHT22;57113;48.680;8.890;2023-05-08T13:14:54;15.90;99.90
26304;DHT22;57113;48.680;8.890;2023-05-08T13:17:20;15.90;99.90
26304;DHT22;57113;48.680;8.890;2023-05-08T13:19:46;16.00;99.90
26304;DHT22;57113;48.680;8.890;2023-05-08T13:22:11;16.10;99.90
26304;DHT22;57113;48.680;8.890;2023-05-08T13:24:37;16.20;99.90
26304;DHT22;57113;48.680;8.890;2023-05-08T13:27:02;16.20;99.90
26304;DHT22;57113;48.680;8.890;2023-05-08T13:29:28;16.20;99.90
26304;DHT22;57113;48.680;8.890;2023-05-08T13:31:54;16.20;99.90
26304;DHT22;57113;48.680;8.890;2023-05-08T13:34:19;16.20;99.90
26304;DHT22;57113;48.680;8.890;2023-05-08T13:36:45;16.20;99.90
26304;DHT22;57113;48.680;8.890;2023-05-08T13:39:11;16.10;99.90
26304;DHT22;57113;48.680;8.890;2023-05-08T13:41:36;16.10;99.90
26304;DHT22;57113;48.680;8.890;2023-05-08T13:44:02;16.10;99.90
26304;DHT22;57113;48.680;8.890;2023-05-08T13:46:27;16.10;99.90
26304;DHT22;57113;48.680;8.890;2023-05-08T13:48:53;16.10;99.90
26304;DHT22;57113;48.680;8.890;2023-05-08T13:51:19;16.10;99.90
26304;DHT22;57113;48.680;8.890;2023-05-08T13:53:44;16.10;99.90
26304;DHT22;57113;48.680;8.890;2023-05-08T13:56:10;16.10;99.90
26304;DHT22;57113;48.680;8.890;2023-05-08T13:58:35;16.10;99.90
26304;DHT22;57113;48.680;8.890;2023-05-08T14:01:01;16.10;99.90
26304;DHT22;57113;48.680;8.890;2023-05-08T14:03:27;16.10;99.90
26304;DHT22;57113;48.680;8.890;2023-05-08T14:05:53;16.10;99.90
26304;DHT22;57113;48.680;8.890;2023-05-08T14:08:18;16.10;99.90
26304;DHT22;57113;48.680;8.890;2023-05-08T14:10:44;16.10;99.90
26304;DHT22;57113;48.680;8.890;2023-05-08T14:13:11;16.10;99.90
26304;DHT22;57113;48.680;8.890;2023-05-08T14:15:36;16.10;99.90
26304;DHT22;57113;48.680;8.890;2023-05-08T14:18:02;16.10;99.90
26304;DHT22;57113;48.680;8.890;2023-05-08T14:20:28;16.10;99.90
26304;DHT22;57113;48.680;8.890;2023-05-08T14:22:54;16.10;99.90
26304;DHT22;57113;48.680;8.890;2023-05-08T14:25:19;16.00;99.90
26304;DHT22;57113;48.680;8.890;2023-05-08T14:27:45;16.00;99.90
26304;DHT22;57113;48.680;8.890;2023-05-08T14:30:11;16.00;99.90
26304;DHT22;57113;48.680;8.890;2023-05-08T14:32:36;16.00;99.90
26304;DHT22;57113;48.680;8.890;2023-05-08T14:35:02;16.00;99.90
26304;DHT22;57113;48.680;8.890;2023-05-08T14:37:28;16.10;99.90
26304;DHT22;57113;48.680;8.890;2023-05-08T14:39:53;16.10;99.90
26304;DHT22;57113;48.680;8.890;2023-05-08T14:42:20;16.10;99.90
26304;DHT22;57113;48.680;8.890;2023-05-08T14:44:46;16.10;99.90
26304;DHT22;57113;48.680;8.890;2023-05-08T14:47:11;16.00;99.90
26304;DHT22;57113;48.680;8.890;2023-05-08T14:49:37;16.10;99.90
26304;DHT22;57113;48.680;8.890;2023-05-08T14:52:03;16.10;99.90
26304;DHT22;57113;48.680;8.890;2023-05-08T14:54:28;16.10;99.90
26304;DHT22;57113;48.680;8.890;2023-05-08T14:56:54;16.00;99.90
26304;DHT22;57113;48.680;8.890;2023-05-08T14:59:20;16.10;99.90
26304;DHT22;57113;48.680;8.890;2023-05-08T15:01:45;16.10;99.90
26304;DHT22;57113;48.680;8.890;2023-05-08T15:04:11;16.10;99.90
26304;DHT22;57113;48.680;8.890;2023-05-08T15:06:37;16.10;99.90
26304;DHT22;57113;48.680;8.890;2023-05-08T15:09:08;16.10;99.90
26304;DHT22;57113;48.680;8.890;2023-05-08T15:11:34;16.10;99.90
26304;DHT22;57113;48.680;8.890;2023-05-08T15:14:01;16.10;99.90
26304;DHT22;57113;48.680;8.890;2023-05-08T15:16:27;16.10;99.90
26304;DHT22;57113;48.680;8.890;2023-05-08T15:18:53;16.10;99.90
26304;DHT22;57113;48.680;8.890;2023-05-08T15:21:18;16.00;99.90
26304;DHT22;57113;48.680;8.890;2023-05-08T15:23:50;16.10;99.90
26304;DHT22;57113;48.680;8.890;2023-05-08T15:26:16;16.00;99.90
26304;DHT22;57113;48.680;8.890;2023-05-08T15:28:42;16.00;99.90
26304;DHT22;57113;48.680;8.890;2023-05-08T15:31:07;16.00;99.90
26304;DHT22;57113;48.680;8.890;2023-05-08T15:33:33;16.10;99.90
26304;DHT22;57113;48.680;8.890;2023-05-08T15:35:58;16.10;99.90
26304;DHT22;57113;48.680;8.890;2023-05-08T15:38:24;16.10;99.90
26304;DHT22;57113;48.680;8.890;2023-05-08T15:40:50;16.10;99.90
26304;DHT22;57113;48.680;8.890;2023-05-08T15:43:15;16.10;99.90
26304;DHT22;57113;48.680;8.890;2023-05-08T15:45:41;16.10;99.90
26304;DHT22;57113;48.680;8.890;2023-05-08T15:48:06;16.10;99.90
26304;DHT22;57113;48.680;8.890;2023-05-08T15:50:32;16.00;99.90
26304;DHT22;57113;48.680;8.890;2023-05-08T15:52:58;16.00;99.90
26304;DHT22;57113;48.680;8.890;2023-05-08T15:55:24;16.00;99.90
26304;DHT22;57113;48.680;8.890;2023-05-08T15:57:50;16.00;99.90
26304;DHT22;57113;48.680;8.890;2023-05-08T16:00:15;16.00;99.90
26304;DHT22;57113;48.680;8.890;2023-05-08T16:02:41;16.10;99.90
26304;DHT22;57113;48.680;8.890;2023-05-08T16:05:07;16.00;99.90
26304;DHT22;57113;48.680;8.890;2023-05-08T16:07:33;16.10;99.90
26304;DHT22;57113;48.680;8.890;2023-05-08T16:09:59;16.00;99.90
26304;DHT22;57113;48.680;8.890;2023-05-08T16:12:24;16.00;99.90
26304;DHT22;57113;48.680;8.890;2023-05-08T16:14:50;16.00;99.90